sensor_id;sensor_type;location;lat;lon;timestamp;temperature;humidity
26099;DHT22;13860;52.370;6.764;2022-11-02T00:02:05;14.50;74.40
26099;DHT22;13860;52.370;6.764;2022-11-02T00:05:12;14.50;74.40
26099;DHT22;13860;52.370;6.764;2022-11-02T00:08:16;14.40;74.30
26099;DHT22;13860;52.370;6.764;2022-11-02T00:11:21;14.50;74.30
26099;DHT22;13860;52.370;6.764;2022-11-02T00:14:25;14.50;74.30
26099;DHT22;13860;52.370;6.764;2022-11-02T00:17:28;14.50;74.40
26099;DHT22;13860;52.370;6.764;2022-11-02T00:20:32;14.40;74.30
26099;DHT22;13860;52.370;6.764;2022-11-02T00:23:37;14.40;74.30
26099;DHT22;13860;52.370;6.764;2022-11-02T00:26:44;14.40;74.30
26099;DHT22;13860;52.370;6.764;2022-11-02T00:29:47;14.40;74.30
26099;DHT22;13860;52.370;6.764;2022-11-02T00:32:51;14.40;74.30
26099;DHT22;13860;52.370;6.764;2022-11-02T00:35:54;14.40;74.40
26099;DHT22;13860;52.370;6.764;2022-11-02T00:38:58;14.50;74.40
26099;DHT22;13860;52.370;6.764;2022-11-02T00:42:03;14.40;74.40
26099;DHT22;13860;52.370;6.764;2022-11-02T00:45:07;14.40;74.40
26099;DHT22;13860;52.370;6.764;2022-11-02T00:48:11;14.40;74.40
26099;DHT22;13860;52.370;6.764;2022-11-02T00:51:14;14.40;74.40
26099;DHT22;13860;52.370;6.764;2022-11-02T00:54:19;14.40;74.40
26099;DHT22;13860;52.370;6.764;2022-11-02T00:57:31;14.40;74.50
26099;DHT22;13860;52.370;6.764;2022-11-02T01:00:34;14.40;74.40
26099;DHT22;13860;52.370;6.764;2022-11-02T01:03:38;14.40;74.40
26099;DHT22;13860;52.370;6.764;2022-11-02T01:06:42;14.40;74.40
26099;DHT22;13860;52.370;6.764;2022-11-02T01:09:45;14.40;74.50
26099;DHT22;13860;52.370;6.764;2022-11-02T01:12:51;14.40;74.50
26099;DHT22;13860;52.370;6.764;2022-11-02T01:15:54;14.40;74.50
26099;DHT22;13860;52.370;6.764;2022-11-02T01:18:58;14.40;74.50
26099;DHT22;13860;52.370;6.764;2022-11-02T01:22:02;14.40;74.50
26099;DHT22;13860;52.370;6.764;2022-11-02T01:25:05;14.40;74.50
26099;DHT22;13860;52.370;6.764;2022-11-02T01:28:11;14.40;74.50
26099;DHT22;13860;52.370;6.764;2022-11-02T01:31:14;14.40;74.50
26099;DHT22;13860;52.370;6.764;2022-11-02T01:34:18;14.40;74.50
26099;DHT22;13860;52.370;6.764;2022-11-02T01:37:21;14.40;74.50
26099;DHT22;13860;52.370;6.764;2022-11-02T01:40:25;14.40;74.50
26099;DHT22;13860;52.370;6.764;2022-11-02T01:43:31;14.40;74.50
26099;DHT22;13860;52.370;6.764;2022-11-02T01:46:35;14.40;74.60
26099;DHT22;13860;52.370;6.764;2022-11-02T01:49:40;14.40;74.60
26099;DHT22;13860;52.370;6.764;2022-11-02T01:52:45;14.40;74.60
26099;DHT22;13860;52.370;6.764;2022-11-02T01:55:48;14.40;74.60
26099;DHT22;13860;52.370;6.764;2022-11-02T01:58:55;14.30;74.60
26099;DHT22;13860;52.370;6.764;2022-11-02T02:02:00;14.30;74.60
26099;DHT22;13860;52.370;6.764;2022-11-02T02:05:06;14.30;74.60
26099;DHT22;13860;52.370;6.764;2022-11-02T02:08:11;14.30;74.70
26099;DHT22;13860;52.370;6.764;2022-11-02T02:11:25;14.20;74.60
26099;DHT22;13860;52.370;6.764;2022-11-02T02:14:31;14.20;74.60
26099;DHT22;13860;52.370;6.764;2022-11-02T02:17:38;14.20;74.70
26099;DHT22;13860;52.370;6.764;2022-11-02T02:20:49;14.20;74.80
26099;DHT22;13860;52.370;6.764;2022-11-02T02:27:27;14.20;74.70
26099;DHT22;13860;52.370;6.764;2022-11-02T02:30:36;14.20;74.80
26099;DHT22;13860;52.370;6.764;2022-11-02T02:33:41;14.20;74.80
26099;DHT22;13860;52.370;6.764;2022-11-02T02:36:46;14.20;74.80
26099;DHT22;13860;52.370;6.764;2022-11-02T02:39:54;14.10;74.70
26099;DHT22;13860;52.370;6.764;2022-11-02T02:43:01;14.10;74.70
26099;DHT22;13860;52.370;6.764;2022-11-02T02:46:09;14.00;74.70
26099;DHT22;13860;52.370;6.764;2022-11-02T02:49:17;14.00;74.80
26099;DHT22;13860;52.370;6.764;2022-11-02T02:52:22;13.90;74.80
26099;DHT22;13860;52.370;6.764;2022-11-02T02:55:28;13.80;74.80
26099;DHT22;13860;52.370;6.764;2022-11-02T02:58:35;13.70;74.90
26099;DHT22;13860;52.370;6.764;2022-11-02T03:01:42;13.70;74.90
26099;DHT22;13860;52.370;6.764;2022-11-02T03:04:47;13.60;74.90
26099;DHT22;13860;52.370;6.764;2022-11-02T03:07:51;13.60;75.00
26099;DHT22;13860;52.370;6.764;2022-11-02T03:10:55;13.50;75.00
26099;DHT22;13860;52.370;6.764;2022-11-02T03:14:08;13.50;75.00
26099;DHT22;13860;52.370;6.764;2022-11-02T03:17:16;13.40;75.00
26099;DHT22;13860;52.370;6.764;2022-11-02T03:20:25;13.30;75.00
26099;DHT22;13860;52.370;6.764;2022-11-02T03:23:31;13.30;75.00
26099;DHT22;13860;52.370;6.764;2022-11-02T03:26:37;13.20;75.10
26099;DHT22;13860;52.370;6.764;2022-11-02T03:29:45;13.20;75.10
26099;DHT22;13860;52.370;6.764;2022-11-02T03:32:54;13.20;75.20
26099;DHT22;13860;52.370;6.764;2022-11-02T03:36:01;13.10;75.20
26099;DHT22;13860;52.370;6.764;2022-11-02T03:39:07;13.10;75.20
26099;DHT22;13860;52.370;6.764;2022-11-02T03:42:13;13.00;75.10
26099;DHT22;13860;52.370;6.764;2022-11-02T03:45:18;13.00;75.80
26099;DHT22;13860;52.370;6.764;2022-11-02T03:48:27;13.00;75.20
26099;DHT22;13860;52.370;6.764;2022-11-02T03:51:33;13.00;75.20
26099;DHT22;13860;52.370;6.764;2022-11-02T03:54:41;12.90;75.30
26099;DHT22;13860;52.370;6.764;2022-11-02T03:57:47;12.90;75.30
26099;DHT22;13860;52.370;6.764;2022-11-02T04:00:55;12.80;75.30
26099;DHT22;13860;52.370;6.764;2022-11-02T04:04:02;12.80;75.30
26099;DHT22;13860;52.370;6.764;2022-11-02T04:07:06;12.80;75.40
26099;DHT22;13860;52.370;6.764;2022-11-02T04:10:11;12.70;75.30
26099;DHT22;13860;52.370;6.764;2022-11-02T04:13:14;12.70;75.30
26099;DHT22;13860;52.370;6.764;2022-11-02T04:16:31;12.60;75.30
26099;DHT22;13860;52.370;6.764;2022-11-02T04:19:39;12.60;75.30
26099;DHT22;13860;52.370;6.764;2022-11-02T04:22:44;12.60;75.40
26099;DHT22;13860;52.370;6.764;2022-11-02T04:26:01;12.50;75.40
26099;DHT22;13860;52.370;6.764;2022-11-02T04:29:16;12.50;75.40
26099;DHT22;13860;52.370;6.764;2022-11-02T04:32:20;12.40;75.40
26099;DHT22;13860;52.370;6.764;2022-11-02T04:35:39;12.40;75.50
26099;DHT22;13860;52.370;6.764;2022-11-02T04:38:43;12.40;75.50
26099;DHT22;13860;52.370;6.764;2022-11-02T04:41:56;12.30;75.50
26099;DHT22;13860;52.370;6.764;2022-11-02T04:45:06;12.30;75.50
26099;DHT22;13860;52.370;6.764;2022-11-02T04:48:09;12.30;75.60
26099;DHT22;13860;52.370;6.764;2022-11-02T04:51:15;12.30;75.60
26099;DHT22;13860;52.370;6.764;2022-11-02T04:54:19;12.30;75.70
26099;DHT22;13860;52.370;6.764;2022-11-02T04:57:27;12.30;75.60
26099;DHT22;13860;52.370;6.764;2022-11-02T05:00:33;12.30;75.70
26099;DHT22;13860;52.370;6.764;2022-11-02T05:03:36;12.30;75.70
26099;DHT22;13860;52.370;6.764;2022-11-02T05:06:43;12.20;75.60
26099;DHT22;13860;52.370;6.764;2022-11-02T05:09:46;12.30;75.70
26099;DHT22;13860;52.370;6.764;2022-11-02T05:12:54;12.30;75.80
26099;DHT22;13860;52.370;6.764;2022-11-02T05:15:59;12.30;75.80
26099;DHT22;13860;52.370;6.764;2022-11-02T05:19:03;12.30;75.80
26099;DHT22;13860;52.370;6.764;2022-11-02T05:22:14;12.30;75.80
26099;DHT22;13860;52.370;6.764;2022-11-02T05:25:18;12.30;75.80
26099;DHT22;13860;52.370;6.764;2022-11-02T05:28:22;12.40;75.80
26099;DHT22;13860;52.370;6.764;2022-11-02T05:31:26;12.40;75.90
26099;DHT22;13860;52.370;6.764;2022-11-02T05:34:30;12.40;75.80
26099;DHT22;13860;52.370;6.764;2022-11-02T05:37:36;12.50;75.80
26099;DHT22;13860;52.370;6.764;2022-11-02T05:40:40;12.50;75.90
26099;DHT22;13860;52.370;6.764;2022-11-02T05:43:45;12.50;75.90
26099;DHT22;13860;52.370;6.764;2022-11-02T05:46:50;12.60;75.80
26099;DHT22;13860;52.370;6.764;2022-11-02T05:49:53;12.60;75.80
26099;DHT22;13860;52.370;6.764;2022-11-02T05:52:58;12.60;75.80
26099;DHT22;13860;52.370;6.764;2022-11-02T05:56:03;12.70;75.80
26099;DHT22;13860;52.370;6.764;2022-11-02T05:59:06;12.70;75.80
26099;DHT22;13860;52.370;6.764;2022-11-02T06:02:10;12.70;75.90
26099;DHT22;13860;52.370;6.764;2022-11-02T06:05:13;12.70;75.80
26099;DHT22;13860;52.370;6.764;2022-11-02T06:08:19;12.70;75.80
26099;DHT22;13860;52.370;6.764;2022-11-02T06:11:22;12.70;75.80
26099;DHT22;13860;52.370;6.764;2022-11-02T06:14:26;12.80;75.80
26099;DHT22;13860;52.370;6.764;2022-11-02T06:17:35;12.80;75.80
26099;DHT22;13860;52.370;6.764;2022-11-02T06:20:38;12.80;75.80
26099;DHT22;13860;52.370;6.764;2022-11-02T06:23:45;12.80;75.80
26099;DHT22;13860;52.370;6.764;2022-11-02T06:26:48;12.80;75.80
26099;DHT22;13860;52.370;6.764;2022-11-02T06:29:52;12.80;75.80
26099;DHT22;13860;52.370;6.764;2022-11-02T06:32:55;12.90;75.80
26099;DHT22;13860;52.370;6.764;2022-11-02T06:36:07;12.90;75.80
26099;DHT22;13860;52.370;6.764;2022-11-02T06:39:12;12.90;75.80
26099;DHT22;13860;52.370;6.764;2022-11-02T06:42:16;12.90;75.80
26099;DHT22;13860;52.370;6.764;2022-11-02T06:45:19;12.90;75.80
26099;DHT22;13860;52.370;6.764;2022-11-02T06:48:23;13.00;75.80
26099;DHT22;13860;52.370;6.764;2022-11-02T06:51:34;13.00;75.80
26099;DHT22;13860;52.370;6.764;2022-11-02T06:54:39;13.00;75.80
26099;DHT22;13860;52.370;6.764;2022-11-02T06:57:43;13.00;75.80
26099;DHT22;13860;52.370;6.764;2022-11-02T07:00:46;13.00;75.70
26099;DHT22;13860;52.370;6.764;2022-11-02T07:03:50;13.10;75.80
26099;DHT22;13860;52.370;6.764;2022-11-02T07:06:53;13.10;75.90
26099;DHT22;13860;52.370;6.764;2022-11-02T07:09:59;13.10;75.90
26099;DHT22;13860;52.370;6.764;2022-11-02T07:13:02;13.00;75.70
26099;DHT22;13860;52.370;6.764;2022-11-02T07:16:07;13.10;75.80
26099;DHT22;13860;52.370;6.764;2022-11-02T07:19:10;13.10;75.80
26099;DHT22;13860;52.370;6.764;2022-11-02T07:22:13;13.10;76.40
26099;DHT22;13860;52.370;6.764;2022-11-02T07:25:19;13.20;75.90
26099;DHT22;13860;52.370;6.764;2022-11-02T07:28:22;13.20;75.90
26099;DHT22;13860;52.370;6.764;2022-11-02T07:31:26;13.10;75.80
26099;DHT22;13860;52.370;6.764;2022-11-02T07:34:29;13.20;75.80
26099;DHT22;13860;52.370;6.764;2022-11-02T07:37:33;13.20;75.80
26099;DHT22;13860;52.370;6.764;2022-11-02T07:40:38;13.30;75.90
26099;DHT22;13860;52.370;6.764;2022-11-02T07:43:42;13.20;75.80
26099;DHT22;13860;52.370;6.764;2022-11-02T07:47:03;13.30;75.90
26099;DHT22;13860;52.370;6.764;2022-11-02T07:50:07;13.20;75.80
26099;DHT22;13860;52.370;6.764;2022-11-02T07:53:10;13.30;75.80
26099;DHT22;13860;52.370;6.764;2022-11-02T07:56:16;13.30;75.80
26099;DHT22;13860;52.370;6.764;2022-11-02T07:59:19;13.30;75.80
26099;DHT22;13860;52.370;6.764;2022-11-02T08:02:23;13.30;75.90
26099;DHT22;13860;52.370;6.764;2022-11-02T08:05:27;13.30;75.80
26099;DHT22;13860;52.370;6.764;2022-11-02T08:08:31;13.30;75.80
26099;DHT22;13860;52.370;6.764;2022-11-02T08:11:36;13.30;75.80
26099;DHT22;13860;52.370;6.764;2022-11-02T08:14:40;13.40;75.90
26099;DHT22;13860;52.370;6.764;2022-11-02T08:17:43;13.40;75.90
26099;DHT22;13860;52.370;6.764;2022-11-02T08:20:47;13.40;75.90
26099;DHT22;13860;52.370;6.764;2022-11-02T08:23:51;13.40;75.90
26099;DHT22;13860;52.370;6.764;2022-11-02T08:27:01;13.40;75.90
26099;DHT22;13860;52.370;6.764;2022-11-02T08:30:05;13.50;75.90
26099;DHT22;13860;52.370;6.764;2022-11-02T08:33:09;13.40;75.90
26099;DHT22;13860;52.370;6.764;2022-11-02T08:36:13;13.50;75.90
26099;DHT22;13860;52.370;6.764;2022-11-02T08:39:16;13.50;76.00
26099;DHT22;13860;52.370;6.764;2022-11-02T08:42:22;13.60;75.90
26099;DHT22;13860;52.370;6.764;2022-11-02T08:45:25;13.60;75.90
26099;DHT22;13860;52.370;6.764;2022-11-02T08:48:39;13.60;76.50
26099;DHT22;13860;52.370;6.764;2022-11-02T08:51:42;13.70;75.90
26099;DHT22;13860;52.370;6.764;2022-11-02T08:54:46;13.60;75.80
26099;DHT22;13860;52.370;6.764;2022-11-02T08:57:52;13.70;75.80
26099;DHT22;13860;52.370;6.764;2022-11-02T09:00:55;13.70;75.80
26099;DHT22;13860;52.370;6.764;2022-11-02T09:03:59;13.70;75.80
26099;DHT22;13860;52.370;6.764;2022-11-02T09:07:02;13.80;75.80
26099;DHT22;13860;52.370;6.764;2022-11-02T09:10:06;13.80;75.70
26099;DHT22;13860;52.370;6.764;2022-11-02T09:13:12;13.80;75.80
26099;DHT22;13860;52.370;6.764;2022-11-02T09:16:18;13.80;75.70
26099;DHT22;13860;52.370;6.764;2022-11-02T09:19:21;13.80;75.60
26099;DHT22;13860;52.370;6.764;2022-11-02T09:22:25;13.80;75.60
26099;DHT22;13860;52.370;6.764;2022-11-02T09:25:28;13.80;75.60
26099;DHT22;13860;52.370;6.764;2022-11-02T09:31:42;13.80;75.60
26099;DHT22;13860;52.370;6.764;2022-11-02T09:34:45;13.90;75.60
26099;DHT22;13860;52.370;6.764;2022-11-02T09:37:50;13.90;75.70
26099;DHT22;13860;52.370;6.764;2022-11-02T09:40:59;13.90;75.60
26099;DHT22;13860;52.370;6.764;2022-11-02T09:44:04;13.90;75.60
26099;DHT22;13860;52.370;6.764;2022-11-02T09:47:12;14.00;75.70
26099;DHT22;13860;52.370;6.764;2022-11-02T09:50:38;14.10;75.70
26099;DHT22;13860;52.370;6.764;2022-11-02T09:53:46;14.10;75.60
26099;DHT22;13860;52.370;6.764;2022-11-02T09:56:54;14.20;75.70
26099;DHT22;13860;52.370;6.764;2022-11-02T09:59:59;14.30;75.60
26099;DHT22;13860;52.370;6.764;2022-11-02T10:03:13;14.40;75.60
26099;DHT22;13860;52.370;6.764;2022-11-02T10:06:20;14.50;75.50
26099;DHT22;13860;52.370;6.764;2022-11-02T10:09:25;14.60;75.50
26099;DHT22;13860;52.370;6.764;2022-11-02T10:12:33;14.60;75.40
26099;DHT22;13860;52.370;6.764;2022-11-02T10:15:43;14.70;75.40
26099;DHT22;13860;52.370;6.764;2022-11-02T10:18:49;14.80;75.40
26099;DHT22;13860;52.370;6.764;2022-11-02T10:21:55;14.80;75.30
26099;DHT22;13860;52.370;6.764;2022-11-02T10:24:59;14.90;75.20
26099;DHT22;13860;52.370;6.764;2022-11-02T10:28:04;14.90;75.10
26099;DHT22;13860;52.370;6.764;2022-11-02T10:31:14;14.90;75.10
26099;DHT22;13860;52.370;6.764;2022-11-02T10:34:22;15.00;75.10
26099;DHT22;13860;52.370;6.764;2022-11-02T10:37:31;15.00;75.10
26099;DHT22;13860;52.370;6.764;2022-11-02T10:40:42;15.10;75.10
26099;DHT22;13860;52.370;6.764;2022-11-02T10:43:55;15.10;75.10
26099;DHT22;13860;52.370;6.764;2022-11-02T10:47:03;15.10;75.00
26099;DHT22;13860;52.370;6.764;2022-11-02T10:50:15;15.20;75.00
26099;DHT22;13860;52.370;6.764;2022-11-02T10:53:19;15.20;75.00
26099;DHT22;13860;52.370;6.764;2022-11-02T10:56:43;15.30;75.00
26099;DHT22;13860;52.370;6.764;2022-11-02T10:59:55;15.30;75.00
26099;DHT22;13860;52.370;6.764;2022-11-02T11:03:18;15.40;75.00
26099;DHT22;13860;52.370;6.764;2022-11-02T11:06:24;15.50;75.10
26099;DHT22;13860;52.370;6.764;2022-11-02T11:09:29;15.60;75.00
26099;DHT22;13860;52.370;6.764;2022-11-02T11:12:36;15.70;75.00
26099;DHT22;13860;52.370;6.764;2022-11-02T11:15:41;15.80;74.80
26099;DHT22;13860;52.370;6.764;2022-11-02T11:19:04;15.90;74.80
26099;DHT22;13860;52.370;6.764;2022-11-02T11:22:31;16.00;74.70
26099;DHT22;13860;52.370;6.764;2022-11-02T11:25:35;16.10;74.60
26099;DHT22;13860;52.370;6.764;2022-11-02T11:28:50;16.10;74.50
26099;DHT22;13860;52.370;6.764;2022-11-02T11:31:54;16.20;74.50
26099;DHT22;13860;52.370;6.764;2022-11-02T11:34:59;16.30;74.50
26099;DHT22;13860;52.370;6.764;2022-11-02T11:38:06;16.30;74.40
26099;DHT22;13860;52.370;6.764;2022-11-02T11:41:11;16.30;74.40
26099;DHT22;13860;52.370;6.764;2022-11-02T11:44:15;16.20;74.30
26099;DHT22;13860;52.370;6.764;2022-11-02T11:47:22;16.20;74.30
26099;DHT22;13860;52.370;6.764;2022-11-02T11:50:27;16.20;74.30
26099;DHT22;13860;52.370;6.764;2022-11-02T11:53:33;16.20;74.30
26099;DHT22;13860;52.370;6.764;2022-11-02T11:56:38;16.20;74.40
26099;DHT22;13860;52.370;6.764;2022-11-02T11:59:46;16.20;74.40
26099;DHT22;13860;52.370;6.764;2022-11-02T12:03:00;16.20;74.30
26099;DHT22;13860;52.370;6.764;2022-11-02T12:06:07;16.20;74.30
26099;DHT22;13860;52.370;6.764;2022-11-02T12:09:19;16.20;74.30
26099;DHT22;13860;52.370;6.764;2022-11-02T12:12:27;16.20;74.30
26099;DHT22;13860;52.370;6.764;2022-11-02T12:15:40;16.10;74.20
26099;DHT22;13860;52.370;6.764;2022-11-02T12:18:56;16.20;74.20
26099;DHT22;13860;52.370;6.764;2022-11-02T12:22:04;16.10;74.20
26099;DHT22;13860;52.370;6.764;2022-11-02T12:25:23;16.10;74.10
26099;DHT22;13860;52.370;6.764;2022-11-02T12:28:28;16.10;74.10
26099;DHT22;13860;52.370;6.764;2022-11-02T12:31:35;16.10;74.10
26099;DHT22;13860;52.370;6.764;2022-11-02T12:34:51;16.10;74.00
26099;DHT22;13860;52.370;6.764;2022-11-02T12:38:32;16.10;74.00
26099;DHT22;13860;52.370;6.764;2022-11-02T12:45:04;15.90;73.90
26099;DHT22;13860;52.370;6.764;2022-11-02T12:48:10;15.90;73.90
26099;DHT22;13860;52.370;6.764;2022-11-02T12:51:17;15.90;74.10
26099;DHT22;13860;52.370;6.764;2022-11-02T12:54:23;15.90;74.00
26099;DHT22;13860;52.370;6.764;2022-11-02T12:57:29;15.90;74.00
26099;DHT22;13860;52.370;6.764;2022-11-02T13:00:36;15.90;73.90
26099;DHT22;13860;52.370;6.764;2022-11-02T13:03:45;15.90;74.00
26099;DHT22;13860;52.370;6.764;2022-11-02T13:06:50;15.80;73.90
26099;DHT22;13860;52.370;6.764;2022-11-02T13:09:55;15.80;73.80
26099;DHT22;13860;52.370;6.764;2022-11-02T13:13:01;15.80;73.80
26099;DHT22;13860;52.370;6.764;2022-11-02T13:16:08;15.80;73.80
26099;DHT22;13860;52.370;6.764;2022-11-02T13:19:14;15.80;73.80
26099;DHT22;13860;52.370;6.764;2022-11-02T13:22:20;15.80;73.80
26099;DHT22;13860;52.370;6.764;2022-11-02T13:25:25;15.70;73.80
26099;DHT22;13860;52.370;6.764;2022-11-02T13:28:31;15.70;73.80
26099;DHT22;13860;52.370;6.764;2022-11-02T13:31:38;15.60;73.70
26099;DHT22;13860;52.370;6.764;2022-11-02T13:34:42;15.70;73.80
26099;DHT22;13860;52.370;6.764;2022-11-02T13:37:48;15.60;73.70
26099;DHT22;13860;52.370;6.764;2022-11-02T13:40:56;15.60;73.70
26099;DHT22;13860;52.370;6.764;2022-11-02T13:47:30;15.60;73.70
26099;DHT22;13860;52.370;6.764;2022-11-02T13:50:37;15.60;73.70
26099;DHT22;13860;52.370;6.764;2022-11-02T13:53:46;15.50;73.70
26099;DHT22;13860;52.370;6.764;2022-11-02T13:56:53;15.50;73.70
26099;DHT22;13860;52.370;6.764;2022-11-02T13:59:58;15.50;73.60
26099;DHT22;13860;52.370;6.764;2022-11-02T14:03:05;15.50;73.60
26099;DHT22;13860;52.370;6.764;2022-11-02T14:06:14;15.50;73.60
26099;DHT22;13860;52.370;6.764;2022-11-02T14:09:28;15.50;73.60
26099;DHT22;13860;52.370;6.764;2022-11-02T14:12:39;15.40;73.60
26099;DHT22;13860;52.370;6.764;2022-11-02T14:15:44;15.40;73.60
26099;DHT22;13860;52.370;6.764;2022-11-02T14:22:17;15.40;73.60
26099;DHT22;13860;52.370;6.764;2022-11-02T14:25:21;15.30;73.50
26099;DHT22;13860;52.370;6.764;2022-11-02T14:28:31;15.30;73.50
26099;DHT22;13860;52.370;6.764;2022-11-02T14:31:37;15.30;73.50
26099;DHT22;13860;52.370;6.764;2022-11-02T14:34:48;15.30;73.50
26099;DHT22;13860;52.370;6.764;2022-11-02T14:38:02;15.20;73.40
26099;DHT22;13860;52.370;6.764;2022-11-02T14:41:16;15.20;73.40
26099;DHT22;13860;52.370;6.764;2022-11-02T14:44:24;15.20;73.40
26099;DHT22;13860;52.370;6.764;2022-11-02T14:47:32;15.20;73.40
26099;DHT22;13860;52.370;6.764;2022-11-02T14:50:36;15.10;73.40
26099;DHT22;13860;52.370;6.764;2022-11-02T14:53:41;15.10;73.40
26099;DHT22;13860;52.370;6.764;2022-11-02T14:56:46;15.10;73.40
26099;DHT22;13860;52.370;6.764;2022-11-02T14:59:51;15.00;73.30
26099;DHT22;13860;52.370;6.764;2022-11-02T15:02:55;15.00;73.30
26099;DHT22;13860;52.370;6.764;2022-11-02T15:06:00;15.00;73.30
26099;DHT22;13860;52.370;6.764;2022-11-02T15:09:09;14.90;73.30
26099;DHT22;13860;52.370;6.764;2022-11-02T15:12:21;14.90;73.30
26099;DHT22;13860;52.370;6.764;2022-11-02T15:15:28;14.90;73.30
26099;DHT22;13860;52.370;6.764;2022-11-02T15:18:33;14.90;73.30
26099;DHT22;13860;52.370;6.764;2022-11-02T15:21:37;14.80;73.20
26099;DHT22;13860;52.370;6.764;2022-11-02T15:24:42;14.80;73.20
26099;DHT22;13860;52.370;6.764;2022-11-02T15:27:46;14.80;73.20
26099;DHT22;13860;52.370;6.764;2022-11-02T15:30:51;14.70;73.20
26099;DHT22;13860;52.370;6.764;2022-11-02T15:33:56;14.70;73.20
26099;DHT22;13860;52.370;6.764;2022-11-02T15:37:00;14.70;73.30
26099;DHT22;13860;52.370;6.764;2022-11-02T15:40:08;14.60;73.20
26099;DHT22;13860;52.370;6.764;2022-11-02T15:43:26;14.60;73.20
26099;DHT22;13860;52.370;6.764;2022-11-02T15:46:36;14.60;73.20
26099;DHT22;13860;52.370;6.764;2022-11-02T15:49:59;14.50;73.20
26099;DHT22;13860;52.370;6.764;2022-11-02T15:53:20;14.50;73.20
26099;DHT22;13860;52.370;6.764;2022-11-02T15:56:41;14.50;73.20
26099;DHT22;13860;52.370;6.764;2022-11-02T16:00:02;14.40;73.20
26099;DHT22;13860;52.370;6.764;2022-11-02T16:03:09;14.30;73.10
26099;DHT22;13860;52.370;6.764;2022-11-02T16:06:13;14.30;73.20
26099;DHT22;13860;52.370;6.764;2022-11-02T16:09:29;14.30;73.10
26099;DHT22;13860;52.370;6.764;2022-11-02T16:12:35;14.20;73.10
26099;DHT22;13860;52.370;6.764;2022-11-02T16:15:38;14.20;73.20
26099;DHT22;13860;52.370;6.764;2022-11-02T16:18:43;14.10;73.10
26099;DHT22;13860;52.370;6.764;2022-11-02T16:21:46;14.10;73.20
26099;DHT22;13860;52.370;6.764;2022-11-02T16:24:51;14.00;73.10
26099;DHT22;13860;52.370;6.764;2022-11-02T16:27:56;14.00;73.10
26099;DHT22;13860;52.370;6.764;2022-11-02T16:31:01;13.90;73.10
26099;DHT22;13860;52.370;6.764;2022-11-02T16:34:17;13.90;73.20
26099;DHT22;13860;52.370;6.764;2022-11-02T16:37:21;13.80;73.20
26099;DHT22;13860;52.370;6.764;2022-11-02T16:40:25;13.80;73.20
26099;DHT22;13860;52.370;6.764;2022-11-02T16:43:31;13.70;73.20
26099;DHT22;13860;52.370;6.764;2022-11-02T16:46:38;13.70;73.20
26099;DHT22;13860;52.370;6.764;2022-11-02T16:49:55;13.60;73.20
26099;DHT22;13860;52.370;6.764;2022-11-02T16:52:59;13.60;73.30
26099;DHT22;13860;52.370;6.764;2022-11-02T16:56:13;13.60;73.30
26099;DHT22;13860;52.370;6.764;2022-11-02T16:59:19;13.50;73.20
26099;DHT22;13860;52.370;6.764;2022-11-02T17:02:28;13.50;73.30
26099;DHT22;13860;52.370;6.764;2022-11-02T17:05:32;13.40;73.30
26099;DHT22;13860;52.370;6.764;2022-11-02T17:08:36;13.40;73.30
26099;DHT22;13860;52.370;6.764;2022-11-02T17:11:41;13.30;73.40
26099;DHT22;13860;52.370;6.764;2022-11-02T17:14:47;13.30;73.30
26099;DHT22;13860;52.370;6.764;2022-11-02T17:18:12;13.20;73.40
26099;DHT22;13860;52.370;6.764;2022-11-02T17:21:24;13.20;73.30
26099;DHT22;13860;52.370;6.764;2022-11-02T17:24:29;13.20;73.30
26099;DHT22;13860;52.370;6.764;2022-11-02T17:27:35;13.10;73.30
26099;DHT22;13860;52.370;6.764;2022-11-02T17:30:48;13.10;73.40
26099;DHT22;13860;52.370;6.764;2022-11-02T17:33:52;13.10;73.40
26099;DHT22;13860;52.370;6.764;2022-11-02T17:36:55;13.00;73.40
26099;DHT22;13860;52.370;6.764;2022-11-02T17:39:59;13.00;74.10
26099;DHT22;13860;52.370;6.764;2022-11-02T17:43:03;13.00;73.40
26099;DHT22;13860;52.370;6.764;2022-11-02T17:46:08;13.00;73.50
26099;DHT22;13860;52.370;6.764;2022-11-02T17:49:11;13.00;73.50
26099;DHT22;13860;52.370;6.764;2022-11-02T17:52:15;13.00;73.50
26099;DHT22;13860;52.370;6.764;2022-11-02T17:55:19;12.90;73.50
26099;DHT22;13860;52.370;6.764;2022-11-02T17:58:23;12.90;73.60
26099;DHT22;13860;52.370;6.764;2022-11-02T18:01:28;12.90;73.50
26099;DHT22;13860;52.370;6.764;2022-11-02T18:04:32;12.90;73.60
26099;DHT22;13860;52.370;6.764;2022-11-02T18:07:36;12.80;74.10
26099;DHT22;13860;52.370;6.764;2022-11-02T18:10:40;12.80;73.50
26099;DHT22;13860;52.370;6.764;2022-11-02T18:13:44;12.80;73.50
26099;DHT22;13860;52.370;6.764;2022-11-02T18:16:49;12.80;73.50
26099;DHT22;13860;52.370;6.764;2022-11-02T18:19:53;12.80;73.60
26099;DHT22;13860;52.370;6.764;2022-11-02T18:22:56;12.80;73.50
26099;DHT22;13860;52.370;6.764;2022-11-02T18:26:00;12.80;73.60
26099;DHT22;13860;52.370;6.764;2022-11-02T18:29:04;12.80;73.60
26099;DHT22;13860;52.370;6.764;2022-11-02T18:32:09;12.80;73.60
26099;DHT22;13860;52.370;6.764;2022-11-02T18:35:13;12.80;73.60
26099;DHT22;13860;52.370;6.764;2022-11-02T18:38:17;12.80;73.60
26099;DHT22;13860;52.370;6.764;2022-11-02T18:41:20;12.80;73.60
26099;DHT22;13860;52.370;6.764;2022-11-02T18:44:30;12.80;73.60
26099;DHT22;13860;52.370;6.764;2022-11-02T18:47:36;12.80;73.60
26099;DHT22;13860;52.370;6.764;2022-11-02T18:50:39;12.80;73.60
26099;DHT22;13860;52.370;6.764;2022-11-02T18:53:43;12.80;73.70
26099;DHT22;13860;52.370;6.764;2022-11-02T18:56:47;12.70;73.60
26099;DHT22;13860;52.370;6.764;2022-11-02T18:59:50;12.70;73.60
26099;DHT22;13860;52.370;6.764;2022-11-02T19:02:55;12.70;73.60
26099;DHT22;13860;52.370;6.764;2022-11-02T19:05:59;12.70;73.60
26099;DHT22;13860;52.370;6.764;2022-11-02T19:09:16;12.70;73.70
26099;DHT22;13860;52.370;6.764;2022-11-02T19:12:23;12.70;73.60
26099;DHT22;13860;52.370;6.764;2022-11-02T19:15:27;12.60;73.60
26099;DHT22;13860;52.370;6.764;2022-11-02T19:18:33;12.70;73.70
26099;DHT22;13860;52.370;6.764;2022-11-02T19:21:36;12.60;73.70
26099;DHT22;13860;52.370;6.764;2022-11-02T19:24:40;12.60;73.70
26099;DHT22;13860;52.370;6.764;2022-11-02T19:27:43;12.60;73.70
26099;DHT22;13860;52.370;6.764;2022-11-02T19:30:47;12.60;73.60
26099;DHT22;13860;52.370;6.764;2022-11-02T19:33:52;12.60;73.70
26099;DHT22;13860;52.370;6.764;2022-11-02T19:36:55;12.60;73.80
26099;DHT22;13860;52.370;6.764;2022-11-02T19:39:59;12.60;73.70
26099;DHT22;13860;52.370;6.764;2022-11-02T19:43:02;12.60;73.70
26099;DHT22;13860;52.370;6.764;2022-11-02T19:46:06;12.50;74.30
26099;DHT22;13860;52.370;6.764;2022-11-02T19:49:12;12.60;73.70
26099;DHT22;13860;52.370;6.764;2022-11-02T19:52:16;12.50;73.70
26099;DHT22;13860;52.370;6.764;2022-11-02T19:55:19;12.50;73.80